createdAt,value
2018-07-23T00:01:59.478Z,23.10
2018-07-23T00:04:27.711Z,23.20
2018-07-23T00:06:56.027Z,23.30
2018-07-23T00:09:24.263Z,23.10
2018-07-23T00:11:52.505Z,23.10
2018-07-23T00:14:20.734Z,22.90
2018-07-23T00:16:49.005Z,22.90
2018-07-23T00:19:17.335Z,22.90
2018-07-23T00:21:45.666Z,22.90
2018-07-23T00:24:13.939Z,22.80
2018-07-23T00:26:42.223Z,22.90
2018-07-23T00:29:10.499Z,22.90
2018-07-23T00:31:38.785Z,22.80
2018-07-23T00:34:07.043Z,22.70
2018-07-23T00:36:35.345Z,22.60
2018-07-23T00:39:04.566Z,22.60
2018-07-23T00:41:32.839Z,22.50
2018-07-23T00:44:01.180Z,22.40
2018-07-23T00:46:29.415Z,22.40
2018-07-23T00:48:57.675Z,22.30
2018-07-23T00:51:25.950Z,22.30
2018-07-23T00:53:54.236Z,22.30
2018-07-23T00:56:22.502Z,22.30
2018-07-23T00:58:50.964Z,22.30
2018-07-23T01:01:19.293Z,22.30
2018-07-23T01:06:15.620Z,22.00
2018-07-23T01:08:43.818Z,22.00
2018-07-23T01:11:12.063Z,22.00
2018-07-23T01:13:40.374Z,22.00
2018-07-23T01:16:08.645Z,22.10
2018-07-23T01:18:36.849Z,22.00
2018-07-23T01:21:05.082Z,21.90
2018-07-23T01:23:33.319Z,21.80
2018-07-23T01:26:01.665Z,21.80
2018-07-23T01:28:29.970Z,21.60
2018-07-23T01:30:58.260Z,21.70
2018-07-23T01:33:26.565Z,21.60
2018-07-23T01:35:54.811Z,21.60
2018-07-23T01:38:23.109Z,21.60
2018-07-23T01:40:51.436Z,21.60
2018-07-23T01:43:19.678Z,21.60
2018-07-23T01:48:16.575Z,21.60
2018-07-23T01:50:44.827Z,21.60
2018-07-23T01:55:41.155Z,21.40
2018-07-23T01:58:09.363Z,21.40
2018-07-23T02:00:37.600Z,21.40
2018-07-23T02:03:05.855Z,21.40
2018-07-23T02:05:34.090Z,21.30
2018-07-23T02:08:02.363Z,21.20
2018-07-23T02:10:30.691Z,21.20
2018-07-23T02:12:58.990Z,21.20
2018-07-23T02:15:27.231Z,21.10
2018-07-23T02:17:55.497Z,21.10
2018-07-23T02:20:23.779Z,21.00
2018-07-23T02:22:52.013Z,21.00
2018-07-23T02:25:20.276Z,21.00
2018-07-23T02:27:48.537Z,21.00
2018-07-23T02:30:16.825Z,20.90
2018-07-23T02:32:45.091Z,20.90
2018-07-23T02:35:13.338Z,20.80
2018-07-23T02:37:41.590Z,20.80
2018-07-23T02:40:09.838Z,20.80
2018-07-23T02:45:06.271Z,20.80
2018-07-23T02:47:34.535Z,20.80
2018-07-23T02:50:02.812Z,20.70
2018-07-23T02:52:31.181Z,20.70
2018-07-23T02:54:59.415Z,20.70
2018-07-23T02:57:27.674Z,20.70
2018-07-23T02:59:56.183Z,20.70
2018-07-23T03:02:24.451Z,20.60
2018-07-23T03:04:52.731Z,20.60
2018-07-23T03:07:21.024Z,20.40
2018-07-23T03:09:49.245Z,20.50
2018-07-23T03:12:24.147Z,20.50
2018-07-23T03:14:52.441Z,20.50
2018-07-23T03:17:20.729Z,20.40
2018-07-23T03:22:17.037Z,20.40
2018-07-23T03:24:45.507Z,20.40
2018-07-23T03:27:13.776Z,20.30
2018-07-23T03:29:42.083Z,20.30
2018-07-23T03:32:10.379Z,20.30
2018-07-23T03:34:38.617Z,20.20
2018-07-23T03:37:06.914Z,20.20
2018-07-23T03:39:35.199Z,20.20
2018-07-23T03:42:03.495Z,20.20
2018-07-23T03:44:31.848Z,20.20
2018-07-23T03:47:00.158Z,20.20
2018-07-23T03:49:28.700Z,20.30
2018-07-23T03:51:57.070Z,20.40
2018-07-23T03:54:25.390Z,20.40
2018-07-23T03:59:21.768Z,20.40
2018-07-23T04:01:50.080Z,20.30
2018-07-23T04:04:18.448Z,20.30
2018-07-23T04:06:48.235Z,20.40
2018-07-23T04:09:16.932Z,20.40
2018-07-23T04:11:45.919Z,20.40
2018-07-23T04:14:14.607Z,20.10
2018-07-23T04:16:42.881Z,20.10
2018-07-23T04:19:11.155Z,20.10
2018-07-23T04:21:39.461Z,20.00
2018-07-23T04:24:07.796Z,20.10
2018-07-23T04:26:36.062Z,20.10
2018-07-23T04:29:04.389Z,20.10
2018-07-23T04:31:32.687Z,20.20
2018-07-23T04:34:00.992Z,20.30
2018-07-23T04:36:29.294Z,20.30
2018-07-23T04:38:57.538Z,20.20
2018-07-23T04:41:25.810Z,20.20
2018-07-23T04:46:22.213Z,20.20
2018-07-23T04:48:50.501Z,20.10
2018-07-23T04:51:18.749Z,20.10
2018-07-23T04:53:47.064Z,20.00
2018-07-23T04:56:15.337Z,20.10
2018-07-23T04:58:43.603Z,20.10
2018-07-23T05:01:11.870Z,20.10
2018-07-23T05:03:40.120Z,20.00
2018-07-23T05:06:08.415Z,20.10
2018-07-23T05:08:36.714Z,20.10
2018-07-23T05:11:05.162Z,20.10
2018-07-23T05:13:33.389Z,20.10
2018-07-23T05:16:02.172Z,20.20
2018-07-23T05:18:30.509Z,20.10
2018-07-23T05:20:58.743Z,20.30
2018-07-23T05:23:27.024Z,20.20
2018-07-23T05:25:55.303Z,20.10
2018-07-23T05:28:23.528Z,20.10
2018-07-23T05:30:51.834Z,20.30
2018-07-23T05:35:48.110Z,20.50
2018-07-23T05:38:16.518Z,20.50
2018-07-23T05:40:44.802Z,20.40
2018-07-23T05:43:13.084Z,20.60
2018-07-23T05:45:41.333Z,20.80
2018-07-23T05:48:09.699Z,20.70
2018-07-23T05:50:38.002Z,20.80
2018-07-23T05:53:06.307Z,20.90
2018-07-23T05:55:34.596Z,20.90
2018-07-23T05:58:02.828Z,21.10
2018-07-23T06:00:31.067Z,21.20
2018-07-23T06:02:59.287Z,21.20
2018-07-23T06:05:27.570Z,21.30
2018-07-23T06:07:55.840Z,21.30
2018-07-23T06:10:24.110Z,21.50
2018-07-23T06:12:53.017Z,21.70
2018-07-23T06:15:22.012Z,21.80
2018-07-23T06:17:50.289Z,21.90
2018-07-23T06:20:18.514Z,22.00
2018-07-23T06:22:46.747Z,22.20
2018-07-23T06:27:43.102Z,22.30
2018-07-23T06:30:11.880Z,22.60
2018-07-23T06:32:40.108Z,22.80
2018-07-23T06:35:08.355Z,23.00
2018-07-23T06:37:36.716Z,23.00
2018-07-23T06:40:06.607Z,23.20
2018-07-23T06:42:34.864Z,23.40
2018-07-23T06:45:03.123Z,23.40
2018-07-23T06:47:31.376Z,23.70
2018-07-23T06:49:59.654Z,23.80
2018-07-23T06:52:27.996Z,24.00
2018-07-23T06:54:56.253Z,24.40
2018-07-23T06:57:24.571Z,24.80
2018-07-23T06:59:52.839Z,25.50
2018-07-23T07:02:21.139Z,25.80
2018-07-23T07:04:49.409Z,26.00
2018-07-23T07:09:46.197Z,27.30
2018-07-23T07:12:14.476Z,27.70
2018-07-23T07:14:42.756Z,28.40
2018-07-23T07:17:11.099Z,29.30
2018-07-23T07:22:07.520Z,28.00
2018-07-23T07:24:35.829Z,27.60
2018-07-23T07:27:04.064Z,27.20
2018-07-23T07:29:32.511Z,27.20
2018-07-23T07:32:00.881Z,26.60
2018-07-23T07:34:29.136Z,26.60
2018-07-23T07:36:57.600Z,26.60
2018-07-23T07:44:22.174Z,27.20
2018-07-23T07:46:50.626Z,27.00
2018-07-23T07:49:18.899Z,27.20
2018-07-23T07:51:47.130Z,27.50
2018-07-23T07:54:15.415Z,27.50
2018-07-23T07:56:43.685Z,27.70
2018-07-23T07:59:12.128Z,27.90
2018-07-23T08:01:41.256Z,27.90
2018-07-23T08:04:09.583Z,27.70
2018-07-23T08:06:37.912Z,28.10
2018-07-23T08:09:07.922Z,27.90
2018-07-23T08:11:36.484Z,28.20
2018-07-23T08:14:04.842Z,28.60
2018-07-23T08:16:33.101Z,28.60
2018-07-23T08:19:01.368Z,28.70
2018-07-23T08:21:29.678Z,28.90
2018-07-23T08:23:57.972Z,28.60
2018-07-23T08:26:26.232Z,28.50
2018-07-23T08:28:54.502Z,28.80
2018-07-23T08:31:22.764Z,28.80
2018-07-23T08:33:51.059Z,29.10
2018-07-23T08:36:19.353Z,29.40
2018-07-23T08:38:47.654Z,29.90
2018-07-23T08:41:16.619Z,29.90
2018-07-23T08:43:44.906Z,30.70
2018-07-23T08:46:13.301Z,30.70
2018-07-23T08:48:41.640Z,30.80
2018-07-23T08:51:10.064Z,31.30
2018-07-23T08:53:38.280Z,31.30
2018-07-23T08:56:06.581Z,31.30
2018-07-23T08:58:34.824Z,31.80
2018-07-23T09:01:03.116Z,32.90
2018-07-23T09:03:31.357Z,33.60
2018-07-23T09:05:59.604Z,33.00
2018-07-23T09:08:27.931Z,34.00
2018-07-23T09:10:56.151Z,33.60
2018-07-23T09:13:24.725Z,34.30
2018-07-23T09:15:52.984Z,35.50
2018-07-23T09:18:21.256Z,35.80
2018-07-23T09:20:49.591Z,35.70
2018-07-23T09:23:17.845Z,36.40
2018-07-23T09:25:46.599Z,37.10
2018-07-23T09:28:15.714Z,37.40
2018-07-23T09:30:49.522Z,37.50
2018-07-23T09:33:17.816Z,37.70
2018-07-23T09:35:46.079Z,38.30
2018-07-23T09:38:14.335Z,38.30
2018-07-23T09:40:42.863Z,37.70
2018-07-23T09:43:11.349Z,38.00
2018-07-23T09:45:39.661Z,38.60
2018-07-23T09:50:35.987Z,39.20
2018-07-23T09:53:04.308Z,39.20
2018-07-23T09:55:32.857Z,39.40
2018-07-23T09:58:01.143Z,39.40
2018-07-23T10:00:34.897Z,39.90
2018-07-23T10:03:03.286Z,40.10
2018-07-23T10:05:32.295Z,40.50
2018-07-23T10:08:00.500Z,41.00
2018-07-23T10:10:28.789Z,38.50
2018-07-23T10:12:57.110Z,38.60
2018-07-23T10:15:25.395Z,37.30
2018-07-23T10:17:53.732Z,35.60
2018-07-23T10:20:22.085Z,34.10
2018-07-23T10:22:50.393Z,33.90
2018-07-23T10:25:18.851Z,33.80
2018-07-23T10:27:47.156Z,32.90
2018-07-23T10:30:15.472Z,32.90
2018-07-23T10:32:43.783Z,32.70
2018-07-23T10:35:12.084Z,32.30
2018-07-23T10:37:40.434Z,32.40
2018-07-23T10:40:08.752Z,32.80
2018-07-23T10:42:37.203Z,33.60
2018-07-23T10:45:05.944Z,33.40
2018-07-23T10:50:02.262Z,33.90
2018-07-23T10:52:30.590Z,34.10
2018-07-23T10:54:58.880Z,35.50
2018-07-23T10:57:27.147Z,36.30
2018-07-23T10:59:55.459Z,37.00
2018-07-23T11:02:23.773Z,37.00
2018-07-23T11:04:52.153Z,36.00
2018-07-23T11:09:48.568Z,38.70
2018-07-23T11:12:16.839Z,40.50
2018-07-23T11:14:45.093Z,40.20
2018-07-23T11:17:13.343Z,39.90
2018-07-23T11:19:41.628Z,41.10
2018-07-23T11:22:09.879Z,40.40
2018-07-23T11:27:06.198Z,38.70
2018-07-23T11:29:34.515Z,40.50
2018-07-23T11:32:02.847Z,41.30
2018-07-23T11:34:31.069Z,41.10
2018-07-23T11:36:59.384Z,42.20
2018-07-23T11:39:27.710Z,39.70
2018-07-23T11:41:55.987Z,38.80
2018-07-23T11:46:52.378Z,39.80
2018-07-23T11:49:23.720Z,38.00
2018-07-23T11:51:51.978Z,36.70
2018-07-23T11:54:20.268Z,35.80
2018-07-23T11:56:48.606Z,35.40
2018-07-23T11:59:16.861Z,35.50
2018-07-23T12:01:45.170Z,37.70
2018-07-23T12:06:41.451Z,39.30
2018-07-23T12:09:11.155Z,39.80
2018-07-23T12:11:39.644Z,37.00
2018-07-23T12:14:08.216Z,35.30
2018-07-23T12:16:36.782Z,34.70
2018-07-23T12:19:05.096Z,34.30
2018-07-23T12:21:33.348Z,33.90
2018-07-23T12:24:02.062Z,33.90
2018-07-23T12:26:30.323Z,34.00
2018-07-23T12:28:58.569Z,34.70
2018-07-23T12:31:26.828Z,35.30
2018-07-23T12:33:55.085Z,37.50
2018-07-23T12:36:24.020Z,37.90
2018-07-23T12:38:52.597Z,37.80
2018-07-23T12:41:21.194Z,37.80
2018-07-23T12:43:49.814Z,36.40
2018-07-23T12:46:18.376Z,35.20
2018-07-23T12:48:46.696Z,34.40
2018-07-23T12:51:15.013Z,34.10
2018-07-23T12:53:43.232Z,33.70
2018-07-23T12:56:11.498Z,33.20
2018-07-23T12:58:39.787Z,33.50
2018-07-23T13:01:08.728Z,33.50
2018-07-23T13:03:36.982Z,33.60
2018-07-23T13:06:05.280Z,33.70
2018-07-23T13:08:33.600Z,33.50
2018-07-23T13:11:01.923Z,34.10
2018-07-23T13:13:30.188Z,34.70
2018-07-23T13:18:26.579Z,35.40
2018-07-23T13:20:54.864Z,35.00
2018-07-23T13:23:23.258Z,34.80
2018-07-23T13:25:51.624Z,35.10
2018-07-23T13:28:19.837Z,35.10
2018-07-23T13:30:48.139Z,34.80
2018-07-23T13:33:16.507Z,34.90
2018-07-23T13:35:44.755Z,35.20
2018-07-23T13:38:13.121Z,35.20
2018-07-23T13:40:41.737Z,35.10
2018-07-23T13:43:10.153Z,35.10
2018-07-23T13:45:38.471Z,35.40
2018-07-23T13:48:06.973Z,35.40
2018-07-23T13:50:35.466Z,35.30
2018-07-23T13:55:31.829Z,34.40
2018-07-23T13:58:00.107Z,34.50
2018-07-23T14:00:28.401Z,34.70
2018-07-23T14:02:56.745Z,34.30
2018-07-23T14:05:25.017Z,34.30
2018-07-23T14:07:53.257Z,34.00
2018-07-23T14:10:21.546Z,33.50
2018-07-23T14:12:49.807Z,33.10
2018-07-23T14:15:18.067Z,32.80
2018-07-23T14:17:46.436Z,32.70
2018-07-23T14:20:14.679Z,33.40
2018-07-23T14:25:10.919Z,34.20
2018-07-23T14:27:39.211Z,33.80
2018-07-23T14:30:07.503Z,34.10
2018-07-23T14:32:35.756Z,34.10
2018-07-23T14:35:04.083Z,34.40
2018-07-23T14:37:32.672Z,34.60
2018-07-23T14:40:01.041Z,34.70
2018-07-23T14:42:29.267Z,35.00
2018-07-23T14:44:57.612Z,34.60
2018-07-23T14:47:25.895Z,34.00
2018-07-23T14:49:54.144Z,33.60
2018-07-23T14:52:22.439Z,33.70
2018-07-23T14:54:50.690Z,33.60
2018-07-23T14:57:19.079Z,33.80
2018-07-23T14:59:47.311Z,34.00
2018-07-23T15:02:15.549Z,34.10
2018-07-23T15:04:43.825Z,34.20
2018-07-23T15:07:12.078Z,33.50
2018-07-23T15:09:40.481Z,33.10
2018-07-23T15:12:08.798Z,33.00
2018-07-23T15:14:37.015Z,33.20
2018-07-23T15:17:05.253Z,33.40
2018-07-23T15:19:33.557Z,33.10
2018-07-23T15:22:02.627Z,33.10
2018-07-23T15:24:30.828Z,33.00
2018-07-23T15:26:59.116Z,33.10
2018-07-23T15:29:27.391Z,33.20
2018-07-23T15:31:55.668Z,32.70
2018-07-23T15:34:24.015Z,32.70
2018-07-23T15:36:52.277Z,32.70
2018-07-23T15:39:20.608Z,32.60
2018-07-23T15:41:48.872Z,32.70
2018-07-23T15:44:17.195Z,33.00
2018-07-23T15:49:13.361Z,33.30
2018-07-23T15:51:41.626Z,33.10
2018-07-23T15:54:09.869Z,33.30
2018-07-23T15:56:38.140Z,33.10
2018-07-23T15:59:06.422Z,33.30
2018-07-23T16:01:34.591Z,33.30
2018-07-23T16:04:02.811Z,33.10
2018-07-23T16:06:31.040Z,32.70
2018-07-23T16:08:59.282Z,32.60
2018-07-23T16:11:27.551Z,32.60
2018-07-23T16:13:55.783Z,32.60
2018-07-23T16:18:52.193Z,32.70
2018-07-23T16:21:21.271Z,32.40
2018-07-23T16:23:49.537Z,32.40
2018-07-23T16:26:17.830Z,32.20
2018-07-23T16:28:46.048Z,32.00
2018-07-23T16:31:14.302Z,32.00
2018-07-23T16:33:42.542Z,32.20
2018-07-23T16:36:10.780Z,31.90
2018-07-23T16:43:34.994Z,32.00
2018-07-23T16:46:03.254Z,31.90
2018-07-23T16:48:31.513Z,32.10
2018-07-23T16:50:59.721Z,32.30
2018-07-23T16:53:27.991Z,32.20
2018-07-23T16:55:56.215Z,31.80
2018-07-23T16:58:24.476Z,31.80
2018-07-23T17:00:52.710Z,32.00
2018-07-23T17:03:21.008Z,32.00
2018-07-23T17:05:49.254Z,31.90
2018-07-23T17:08:17.967Z,31.60
2018-07-23T17:10:46.220Z,31.30
2018-07-23T17:13:14.575Z,31.30
2018-07-23T17:15:42.838Z,31.40
2018-07-23T17:18:11.544Z,31.40
2018-07-23T17:20:39.619Z,31.40
2018-07-23T17:23:07.851Z,31.30
2018-07-23T17:25:36.067Z,31.20
2018-07-23T17:28:04.336Z,31.20
2018-07-23T17:30:32.555Z,31.10
2018-07-23T17:33:00.792Z,30.90
2018-07-23T17:35:29.031Z,30.90
2018-07-23T17:37:57.306Z,30.80
2018-07-23T17:40:25.583Z,30.70
2018-07-23T17:42:53.798Z,30.60
2018-07-23T17:45:22.121Z,30.70
2018-07-23T17:47:50.394Z,30.80
2018-07-23T17:50:18.659Z,30.90
2018-07-23T17:52:46.916Z,30.80
2018-07-23T17:55:15.173Z,30.80
2018-07-23T17:57:43.450Z,30.80
2018-07-23T18:00:11.763Z,30.70
2018-07-23T18:05:11.491Z,30.70
2018-07-23T18:07:39.777Z,30.60
2018-07-23T18:10:07.979Z,30.50
2018-07-23T18:12:36.219Z,30.50
2018-07-23T18:15:04.747Z,30.50
2018-07-23T18:17:33.001Z,30.50
2018-07-23T18:20:01.317Z,30.40
2018-07-23T18:22:29.667Z,30.20
2018-07-23T18:24:57.910Z,30.30
2018-07-23T18:27:26.214Z,30.10
2018-07-23T18:29:54.459Z,30.10
2018-07-23T18:32:22.798Z,30.20
2018-07-23T18:34:51.031Z,30.20
2018-07-23T18:37:19.312Z,30.10
2018-07-23T18:39:47.555Z,30.00
2018-07-23T18:42:15.812Z,30.10
2018-07-23T18:44:44.055Z,30.10
2018-07-23T18:47:12.318Z,30.10
2018-07-23T18:49:53.604Z,30.00
2018-07-23T18:52:22.465Z,30.10
2018-07-23T18:54:52.084Z,30.00
2018-07-23T18:57:20.312Z,29.90
2018-07-23T18:59:48.637Z,29.90
2018-07-23T19:02:18.046Z,29.80
2018-07-23T19:04:46.324Z,29.80
2018-07-23T19:07:14.675Z,29.60
2018-07-23T19:09:43.281Z,29.60
2018-07-23T19:12:12.081Z,29.40
2018-07-23T19:14:40.496Z,29.40
2018-07-23T19:17:11.325Z,29.40
2018-07-23T19:19:39.599Z,29.30
2018-07-23T19:22:07.970Z,29.20
2018-07-23T19:24:36.217Z,29.00
2018-07-23T19:27:04.696Z,28.90
2018-07-23T19:29:33.025Z,28.90
2018-07-23T19:32:01.326Z,28.80
2018-07-23T19:36:57.591Z,28.70
2018-07-23T19:39:25.790Z,28.60
2018-07-23T19:41:54.173Z,28.50
2018-07-23T19:44:22.508Z,28.40
2018-07-23T19:46:50.766Z,28.30
2018-07-23T19:49:19.157Z,28.20
2018-07-23T19:51:47.459Z,28.10
2018-07-23T19:54:15.737Z,28.00
2018-07-23T19:56:44.026Z,28.00
2018-07-23T19:59:12.313Z,28.00
2018-07-23T20:01:40.626Z,28.00
2018-07-23T20:06:36.901Z,27.80
2018-07-23T20:09:08.048Z,27.70
2018-07-23T20:11:36.370Z,27.60
2018-07-23T20:14:04.610Z,27.60
2018-07-23T20:16:33.670Z,27.50
2018-07-23T20:21:30.021Z,27.30
2018-07-23T20:23:58.289Z,27.30
2018-07-23T20:28:54.798Z,27.20
2018-07-23T20:31:23.154Z,27.10
2018-07-23T20:33:51.481Z,27.00
2018-07-23T20:36:19.812Z,26.90
2018-07-23T20:38:48.139Z,26.70
2018-07-23T20:41:16.470Z,26.60
2018-07-23T20:43:44.756Z,26.60
2018-07-23T20:46:13.174Z,26.40
2018-07-23T20:51:09.565Z,26.50
2018-07-23T20:53:37.859Z,26.60
2018-07-23T20:56:06.126Z,26.60
2018-07-23T20:58:34.418Z,26.60
2018-07-23T21:01:02.669Z,26.60
2018-07-23T21:03:31.008Z,26.50
2018-07-23T21:05:59.251Z,26.50
2018-07-23T21:08:27.602Z,26.50
2018-07-23T21:10:55.852Z,26.50
2018-07-23T21:13:24.188Z,26.40
2018-07-23T21:15:52.447Z,26.40
2018-07-23T21:18:20.765Z,26.30
2018-07-23T21:20:48.992Z,26.30
2018-07-23T21:23:17.199Z,26.10
2018-07-23T21:25:45.471Z,26.10
2018-07-23T21:28:13.758Z,26.10
2018-07-23T21:30:42.011Z,26.10
2018-07-23T21:33:10.274Z,26.10
2018-07-23T21:35:38.521Z,26.00
2018-07-23T21:38:06.798Z,25.90
2018-07-23T21:40:35.047Z,25.80
2018-07-23T21:43:03.335Z,25.80
2018-07-23T21:45:31.722Z,25.70
2018-07-23T21:48:00.029Z,25.70
2018-07-23T21:50:28.319Z,25.60
2018-07-23T21:52:56.639Z,25.50
2018-07-23T21:55:24.881Z,25.20
2018-07-23T21:57:53.148Z,25.20
2018-07-23T22:00:21.384Z,25.30
2018-07-23T22:02:49.642Z,25.20
2018-07-23T22:05:17.876Z,25.20
2018-07-23T22:07:46.160Z,25.30
2018-07-23T22:10:14.499Z,25.20
2018-07-23T22:12:42.755Z,25.30
2018-07-23T22:15:11.576Z,25.30
2018-07-23T22:17:39.857Z,25.30
2018-07-23T22:20:08.806Z,25.30
2018-07-23T22:22:37.078Z,25.20
2018-07-23T22:25:05.419Z,25.10
2018-07-23T22:27:33.674Z,25.00
2018-07-23T22:30:01.992Z,24.90
2018-07-23T22:32:30.276Z,24.80
2018-07-23T22:34:58.541Z,24.70
2018-07-23T22:37:26.803Z,24.70
2018-07-23T22:39:55.075Z,24.60
2018-07-23T22:42:24.274Z,24.50
2018-07-23T22:44:52.592Z,24.60
2018-07-23T22:47:20.898Z,24.50
2018-07-23T22:49:49.199Z,24.50
2018-07-23T22:52:17.498Z,24.50
2018-07-23T22:54:45.727Z,24.50
2018-07-23T22:57:14.049Z,24.50
2018-07-23T22:59:42.394Z,24.60
2018-07-23T23:02:10.726Z,24.50
2018-07-23T23:07:07.094Z,24.40
2018-07-23T23:09:35.487Z,24.50
2018-07-23T23:12:03.899Z,24.40
2018-07-23T23:14:32.346Z,24.40
2018-07-23T23:17:00.578Z,24.40
2018-07-23T23:19:28.880Z,24.40
2018-07-23T23:21:57.100Z,24.30
2018-07-23T23:24:25.383Z,24.30
2018-07-23T23:26:53.902Z,24.30
2018-07-23T23:31:50.198Z,24.20
2018-07-23T23:34:18.459Z,24.10
2018-07-23T23:36:46.756Z,24.10
2018-07-23T23:39:14.979Z,24.10
2018-07-23T23:41:43.273Z,24.10
2018-07-23T23:44:11.535Z,23.90
2018-07-23T23:46:39.834Z,23.90
2018-07-23T23:49:08.053Z,23.90
2018-07-23T23:51:36.343Z,23.70
2018-07-23T23:54:04.598Z,23.70
2018-07-23T23:56:32.836Z,23.50
2018-07-23T23:59:01.141Z,23.30
